Fayetteville, North Carolina
Current Conditions -  °F | °C
As of 12:53 PM on Thursday 30 Oct 2014 (Local Time) from KFAY Reporting Station
Clear Clear  
Wind Chill: 69°   Ceiling: Unl
Heat Index: 69°   Visibility: 10mi
Dew Point: 44°   Wind: 10mph
Humidity: 40%   Direction: 10°N
Pressure: 30.01"   Gusts: NA
Location:  35.05°N, 78.88°W
Report Text: KFAY 301653Z AUTO 01009KT 10SM CLR 21/07 A3001 RMK AO2 SLP157 T02060067
Loading
Personal Weather Stations






























Interactive Weather Map
Tropical Storm Tracking
New forecast layout! Learn more

10-Day Weather Forecast

Advertisements
Track Severe Weather on mobile